Time;durP1;ratioP1;P1;durP2;ratioP2;P2;SDS_P1;SDS_P2;PMS_P1;PMS_P2;Temp;Humidity;BMP_temperature;BMP_pressure;BME280_temperature;BME280_humidity;BME280_pressure;Samples;Min_cycle;Max_cycle;Signal;HPM_P1;HPM_P2
2023/05/14 00:02:06;;;;;;;7.88;5.75;;;;;;;;;;5135516;27;20043;-82
2023/05/14 00:04:52;;;;;;;6.18;4.60;;;;;;;;;;5127230;27;20043;-83
2023/05/14 00:07:37;;;;;;;6.13;4.45;;;;;;;;;;5113246;27;20047;-81
2023/05/14 00:10:23;;;;;;;8.05;5.38;;;;;;;;;;5119793;27;20042;-84
2023/05/14 00:13:08;;;;;;;7.40;4.55;;;;;;;;;;5135883;27;20043;-80
2023/05/14 00:15:53;;;;;;;13.98;6.35;;;;;;;;;;5126617;27;20043;-80
2023/05/14 00:18:39;;;;;;;7.65;5.88;;;;;;;;;;5120077;27;20483;-81
2023/05/14 00:21:28;;;;;;;8.40;5.93;;;;;;;;;;5135485;27;20035;-81
2023/05/14 00:24:14;;;;;;;9.38;6.30;;;;;;;;;;5134920;27;20043;-81
2023/05/14 00:27:03;;;;;;;9.80;6.43;;;;;;;;;;5126690;27;20047;-80
2023/05/14 00:29:51;;;;;;;11.77;6.60;;;;;;;;;;5126441;27;20047;-81
2023/05/14 00:32:37;;;;;;;8.80;5.45;;;;;;;;;;5135182;27;20488;-81
2023/05/14 00:35:22;;;;;;;6.45;5.65;;;;;;;;;;5126454;27;20047;-82
2023/05/14 00:38:08;;;;;;;8.75;6.20;;;;;;;;;;5111506;27;20051;-82
2023/05/14 00:40:53;;;;;;;7.70;6.07;;;;;;;;;;5112257;27;20414;-82
2023/05/14 00:43:39;;;;;;;8.20;5.72;;;;;;;;;;5126215;27;20051;-82
2023/05/14 00:46:25;;;;;;;7.45;4.88;;;;;;;;;;5126896;27;20046;-81
2023/05/14 00:49:10;;;;;;;11.40;5.65;;;;;;;;;;5119168;27;20035;-83
2023/05/14 00:51:57;;;;;;;5.60;4.28;;;;;;;;;;5134530;27;20043;-81
2023/05/14 00:54:43;;;;;;;11.13;5.22;;;;;;;;;;5126173;27;20055;-82
2023/05/14 00:57:29;;;;;;;11.45;6.70;;;;;;;;;;5125717;27;20047;-82
2023/05/14 01:00:15;;;;;;;7.18;5.45;;;;;;;;;;5134644;28;20047;-82
2023/05/14 01:03:01;;;;;;;8.70;5.20;;;;;;;;;;5126605;27;20487;-82
2023/05/14 01:06:05;;;;;;;8.02;5.35;;;;;;;;;;5125737;27;20047;-82
2023/05/14 01:09:00;;;;;;;9.50;6.47;;;;;;;;;;5126473;27;20055;-81
2023/05/14 01:12:01;;;;;;;7.07;5.72;;;;;;;;;;5134327;28;20047;-82
2023/05/14 01:14:55;;;;;;;4.95;3.92;;;;;;;;;;5134679;28;20039;-80
2023/05/14 01:17:52;;;;;;;9.30;4.93;;;;;;;;;;5126365;27;20472;-81
2023/05/14 01:20:37;;;;;;;11.75;6.10;;;;;;;;;;5111767;27;20043;-81
2023/05/14 01:23:23;;;;;;;12.13;7.40;;;;;;;;;;5134289;28;20043;-81
2023/05/14 01:26:09;;;;;;;7.88;5.72;;;;;;;;;;5134385;28;20414;-81
2023/05/14 01:29:00;;;;;;;11.10;6.45;;;;;;;;;;5134456;28;20043;-81
2023/05/14 01:31:47;;;;;;;7.65;6.13;;;;;;;;;;5119389;28;20039;-82
2023/05/14 01:34:35;;;;;;;11.35;6.65;;;;;;;;;;5134142;28;20051;-81
2023/05/14 01:37:21;;;;;;;8.25;6.20;;;;;;;;;;5125972;27;20043;-80
2023/05/14 01:40:10;;;;;;;3.78;3.22;;;;;;;;;;5133913;28;20414;-82
2023/05/14 01:42:56;;;;;;;10.60;6.47;;;;;;;;;;5119235;28;20043;-83
2023/05/14 01:45:41;;;;;;;8.55;5.88;;;;;;;;;;5111518;27;20050;-82
2023/05/14 01:48:28;;;;;;;10.18;6.72;;;;;;;;;;5111574;27;20047;-82
2023/05/14 01:51:14;;;;;;;10.75;6.28;;;;;;;;;;5129649;27;20039;-84
2023/05/14 01:53:59;;;;;;;12.05;6.60;;;;;;;;;;5129463;27;20047;-82
2023/05/14 01:56:45;;;;;;;8.45;5.72;;;;;;;;;;5137956;27;20043;-82
2023/05/14 01:59:30;;;;;;;9.70;6.22;;;;;;;;;;5138064;27;20051;-82
2023/05/14 02:02:16;;;;;;;8.13;5.45;;;;;;;;;;5129025;27;20047;-83
2023/05/14 02:05:02;;;;;;;12.45;6.35;;;;;;;;;;5122663;27;20047;-83
2023/05/14 02:07:47;;;;;;;9.50;6.80;;;;;;;;;;5129028;27;20043;-83
2023/05/14 02:10:34;;;;;;;11.70;6.97;;;;;;;;;;5115429;27;20043;-82
2023/05/14 02:13:20;;;;;;;7.80;6.28;;;;;;;;;;5129324;27;20047;-83
2023/05/14 02:16:05;;;;;;;10.38;6.75;;;;;;;;;;5114446;27;20422;-83
2023/05/14 02:18:50;;;;;;;11.25;6.72;;;;;;;;;;5114698;27;20051;-83
2023/05/14 02:21:35;;;;;;;8.80;6.88;;;;;;;;;;5137529;27;20471;-84
2023/05/14 02:24:21;;;;;;;8.45;6.15;;;;;;;;;;5137617;27;20031;-83
2023/05/14 02:27:06;;;;;;;8.00;5.68;;;;;;;;;;5122509;27;20043;-83
2023/05/14 02:29:52;;;;;;;10.52;6.85;;;;;;;;;;5114502;27;20047;-84
2023/05/14 02:32:37;;;;;;;9.13;6.90;;;;;;;;;;5129086;27;20039;-83
2023/05/14 02:35:23;;;;;;;6.55;5.20;;;;;;;;;;5128428;27;20047;-83
2023/05/14 02:38:09;;;;;;;8.43;6.72;;;;;;;;;;5128737;27;20514;-83
2023/05/14 02:40:55;;;;;;;8.60;7.28;;;;;;;;;;5129130;27;20051;-83
2023/05/14 02:43:40;;;;;;;7.03;5.60;;;;;;;;;;5114032;27;20051;-83
2023/05/14 02:46:25;;;;;;;11.93;7.18;;;;;;;;;;5114446;27;20043;-82
2023/05/14 02:49:10;;;;;;;9.88;7.15;;;;;;;;;;5121744;27;20047;-83
2023/05/14 02:51:56;;;;;;;7.63;5.75;;;;;;;;;;5114068;27;20043;-83
2023/05/14 02:54:41;;;;;;;14.27;7.47;;;;;;;;;;5114841;27;20039;-84
2023/05/14 02:57:27;;;;;;;9.00;5.60;;;;;;;;;;5113470;27;20403;-83
2023/05/14 03:00:12;;;;;;;8.68;6.25;;;;;;;;;;5109201;27;20043;-84
2023/05/14 03:02:58;;;;;;;11.40;6.75;;;;;;;;;;5128451;27;20047;-84
2023/05/14 03:05:44;;;;;;;6.97;5.43;;;;;;;;;;5128554;27;20043;-83
2023/05/14 03:08:29;;;;;;;6.43;4.40;;;;;;;;;;5128439;27;20403;-84
2023/05/14 03:11:15;;;;;;;6.80;5.38;;;;;;;;;;5127795;27;20038;-82
2023/05/14 03:14:00;;;;;;;7.05;6.13;;;;;;;;;;5113746;27;20043;-83
2023/05/14 03:16:45;;;;;;;6.57;4.68;;;;;;;;;;5113704;27;20043;-83
2023/05/14 03:19:31;;;;;;;10.10;7.00;;;;;;;;;;5120877;27;20039;-82
2023/05/14 03:22:16;;;;;;;6.60;5.45;;;;;;;;;;5113918;27;20047;-83
2023/05/14 03:25:02;;;;;;;11.32;7.03;;;;;;;;;;5113482;27;20047;-82
2023/05/14 03:27:47;;;;;;;5.75;4.75;;;;;;;;;;5121240;27;20051;-84
2023/05/14 03:30:33;;;;;;;7.40;5.65;;;;;;;;;;5127865;27;20051;-85
2023/05/14 03:33:18;;;;;;;9.02;6.35;;;;;;;;;;5112952;27;20051;-83
2023/05/14 03:36:04;;;;;;;13.65;7.00;;;;;;;;;;5136035;27;20040;-84
2023/05/14 03:38:50;;;;;;;7.32;6.03;;;;;;;;;;5120271;27;20047;-83
2023/05/14 03:41:36;;;;;;;9.20;6.80;;;;;;;;;;5127621;27;20047;-83
2023/05/14 03:44:21;;;;;;;5.15;4.10;;;;;;;;;;5120564;27;20395;-83
2023/05/14 03:47:06;;;;;;;8.07;5.97;;;;;;;;;;5120318;27;20051;-84
2023/05/14 03:49:52;;;;;;;8.60;5.22;;;;;;;;;;5127390;27;20487;-83
2023/05/14 03:52:37;;;;;;;6.82;4.80;;;;;;;;;;5127081;27;20046;-83
2023/05/14 03:55:23;;;;;;;7.28;5.45;;;;;;;;;;5113058;27;20395;-84
2023/05/14 03:58:13;;;;;;;8.63;5.60;;;;;;;;;;5127193;27;20035;-84
2023/05/14 04:00:59;;;;;;;9.48;6.15;;;;;;;;;;5106138;27;20047;-83
2023/05/14 04:03:44;;;;;;;6.90;5.60;;;;;;;;;;5126982;27;20043;-83
2023/05/14 04:06:32;;;;;;;7.05;3.80;;;;;;;;;;5127282;27;20055;-83
2023/05/14 04:09:17;;;;;;;8.52;6.25;;;;;;;;;;5127105;27;20047;-84
2023/05/14 04:12:03;;;;;;;6.82;4.93;;;;;;;;;;5126526;27;20467;-83
2023/05/14 04:14:48;;;;;;;7.85;5.40;;;;;;;;;;5112323;27;20046;-83
2023/05/14 04:17:33;;;;;;;6.30;4.53;;;;;;;;;;5126822;27;20051;-83
2023/05/14 04:20:18;;;;;;;8.93;5.78;;;;;;;;;;5112481;27;20464;-83
2023/05/14 04:23:04;;;;;;;12.40;5.65;;;;;;;;;;5126792;27;20043;-84
2023/05/14 04:25:49;;;;;;;7.28;4.85;;;;;;;;;;5119777;27;20039;-83
2023/05/14 04:28:34;;;;;;;7.43;5.63;;;;;;;;;;5131546;27;20059;-85
2023/05/14 04:31:21;;;;;;;5.82;4.72;;;;;;;;;;5117051;27;20043;-83
2023/05/14 04:34:06;;;;;;;4.45;4.00;;;;;;;;;;5112085;27;20043;-83
2023/05/14 04:36:52;;;;;;;6.28;4.15;;;;;;;;;;5112541;27;20043;-82
2023/05/14 04:39:38;;;;;;;5.90;4.20;;;;;;;;;;5120204;27;20039;-84
2023/05/14 04:42:24;;;;;;;11.93;4.60;;;;;;;;;;5119397;27;20047;-83
2023/05/14 04:45:11;;;;;;;7.18;4.93;;;;;;;;;;5105937;27;20487;-83
2023/05/14 04:47:56;;;;;;;5.25;4.15;;;;;;;;;;5118088;27;20047;-81
2023/05/14 04:50:43;;;;;;;5.82;4.18;;;;;;;;;;5106097;28;20043;-83
2023/05/14 04:53:28;;;;;;;6.18;4.78;;;;;;;;;;5119468;27;20043;-83
2023/05/14 04:56:13;;;;;;;4.93;3.83;;;;;;;;;;5134106;27;20047;-84
2023/05/14 04:58:58;;;;;;;7.18;4.85;;;;;;;;;;5091492;27;20051;-84
2023/05/14 05:01:44;;;;;;;6.38;5.55;;;;;;;;;;5121479;27;20048;-83
2023/05/14 05:04:30;;;;;;;7.25;5.25;;;;;;;;;;5114120;28;20059;-83
2023/05/14 05:07:15;;;;;;;7.30;5.38;;;;;;;;;;5114115;28;20047;-84
2023/05/14 05:10:01;;;;;;;9.30;4.88;;;;;;;;;;5105532;28;20043;-84
2023/05/14 05:12:47;;;;;;;6.90;4.43;;;;;;;;;;5114219;28;20044;-84
2023/05/14 05:15:32;;;;;;;5.97;4.55;;;;;;;;;;5124546;27;20047;-83
2023/05/14 05:18:18;;;;;;;6.47;5.18;;;;;;;;;;5118662;28;20051;-84
2023/05/14 05:21:03;;;;;;;8.25;3.88;;;;;;;;;;5126295;27;20043;-84
2023/05/14 05:23:49;;;;;;;11.38;5.13;;;;;;;;;;5137324;27;20051;-83
2023/05/14 05:26:37;;;;;;;9.45;4.07;;;;;;;;;;5116001;27;20047;-83
2023/05/14 05:29:23;;;;;;;7.70;5.88;;;;;;;;;;5138805;27;20031;-83
2023/05/14 05:32:09;;;;;;;5.47;4.30;;;;;;;;;;5119679;27;20046;-82
2023/05/14 05:34:54;;;;;;;4.28;3.00;;;;;;;;;;5119576;27;20047;-84
2023/05/14 05:37:41;;;;;;;6.10;4.45;;;;;;;;;;5133338;27;20043;-84
2023/05/14 05:40:26;;;;;;;6.25;5.35;;;;;;;;;;5132532;27;20054;-85
2023/05/14 05:43:13;;;;;;;7.57;4.85;;;;;;;;;;5143828;27;20051;-82
2023/05/14 05:46:00;;;;;;;7.57;5.00;;;;;;;;;;5116064;28;20047;-84
2023/05/14 05:48:45;;;;;;;6.00;4.75;;;;;;;;;;5112937;28;20443;-84
2023/05/14 05:51:32;;;;;;;9.35;5.25;;;;;;;;;;5128079;27;20047;-83
2023/05/14 05:54:17;;;;;;;5.40;4.85;;;;;;;;;;5122906;27;20110;-83
2023/05/14 05:57:03;;;;;;;5.22;3.67;;;;;;;;;;5137778;27;20499;-84
2023/05/14 05:59:48;;;;;;;7.28;4.90;;;;;;;;;;5111344;27;20051;-83
2023/05/14 06:02:34;;;;;;;7.97;5.57;;;;;;;;;;5129504;27;20042;-83
2023/05/14 06:05:20;;;;;;;5.85;4.18;;;;;;;;;;5129041;27;20051;-82
2023/05/14 06:08:05;;;;;;;8.10;5.55;;;;;;;;;;5114436;27;20051;-83
2023/05/14 06:10:50;;;;;;;6.32;5.38;;;;;;;;;;5129546;27;20403;-84
2023/05/14 06:13:35;;;;;;;6.18;4.65;;;;;;;;;;5100011;28;20044;-85
2023/05/14 06:16:21;;;;;;;7.45;6.30;;;;;;;;;;5101638;28;20040;-84
2023/05/14 06:19:07;;;;;;;6.63;5.40;;;;;;;;;;5108582;28;20047;-84
2023/05/14 06:21:52;;;;;;;8.82;5.20;;;;;;;;;;5117053;28;20040;-85
2023/05/14 06:24:38;;;;;;;5.80;4.65;;;;;;;;;;5110201;27;20425;-84
2023/05/14 06:27:23;;;;;;;6.18;4.95;;;;;;;;;;5122005;27;20047;-84
2023/05/14 06:30:09;;;;;;;6.00;4.57;;;;;;;;;;5113688;27;20038;-84
2023/05/14 06:32:54;;;;;;;6.63;4.80;;;;;;;;;;5121672;27;20043;-83
2023/05/14 06:35:40;;;;;;;7.18;4.70;;;;;;;;;;5136355;27;20047;-83
2023/05/14 06:38:26;;;;;;;10.90;5.00;;;;;;;;;;5111790;27;20047;-84
2023/05/14 06:41:12;;;;;;;8.00;6.30;;;;;;;;;;5116381;28;20491;-85
2023/05/14 06:43:57;;;;;;;8.68;5.43;;;;;;;;;;5093828;28;20039;-84
2023/05/14 06:46:42;;;;;;;9.45;7.00;;;;;;;;;;5108110;28;20051;-84
2023/05/14 06:49:27;;;;;;;8.15;6.22;;;;;;;;;;5107591;28;20043;-85
2023/05/14 06:52:12;;;;;;;8.75;5.05;;;;;;;;;;5127494;27;20036;-86
2023/05/14 06:54:58;;;;;;;5.28;4.00;;;;;;;;;;5135626;27;20039;-84
2023/05/14 06:57:44;;;;;;;5.68;4.38;;;;;;;;;;5119015;28;20491;-83
2023/05/14 07:00:29;;;;;;;9.55;6.38;;;;;;;;;;5116805;28;20047;-85
2023/05/14 07:03:15;;;;;;;12.27;7.05;;;;;;;;;;5116852;27;20054;-84
2023/05/14 07:06:00;;;;;;;10.85;7.15;;;;;;;;;;5095091;28;20052;-84
2023/05/14 07:08:46;;;;;;;7.63;5.65;;;;;;;;;;5123876;27;20048;-84
2023/05/14 07:11:32;;;;;;;9.48;6.45;;;;;;;;;;5135114;27;20035;-85
2023/05/14 07:14:18;;;;;;;12.88;9.10;;;;;;;;;;5127037;27;20039;-84
2023/05/14 07:17:03;;;;;;;11.68;6.63;;;;;;;;;;5113171;27;20387;-84
2023/05/14 07:19:48;;;;;;;9.15;7.60;;;;;;;;;;5127901;27;20047;-85
2023/05/14 07:22:34;;;;;;;10.40;6.95;;;;;;;;;;5113366;27;20483;-84
2023/05/14 07:25:19;;;;;;;8.07;6.57;;;;;;;;;;5113544;27;20047;-86
2023/05/14 07:28:06;;;;;;;9.15;7.00;;;;;;;;;;5113470;27;20047;-84
2023/05/14 07:30:50;;;;;;;10.73;7.63;;;;;;;;;;5113085;27;20051;-83
2023/05/14 07:33:36;;;;;;;8.63;7.50;;;;;;;;;;5127513;27;20043;-86
2023/05/14 07:36:21;;;;;;;11.18;7.50;;;;;;;;;;5112829;27;20047;-85
2023/05/14 07:39:06;;;;;;;13.70;8.15;;;;;;;;;;5113036;27;20043;-84
2023/05/14 07:41:53;;;;;;;8.63;6.05;;;;;;;;;;5120866;27;20438;-85
2023/05/14 07:44:42;;;;;;;10.93;6.25;;;;;;;;;;5126013;27;20403;-86
2023/05/14 07:47:28;;;;;;;7.40;5.53;;;;;;;;;;5111095;27;20422;-84
2023/05/14 07:50:14;;;;;;;8.65;6.50;;;;;;;;;;5112162;27;20043;-86
2023/05/14 07:52:59;;;;;;;7.97;5.65;;;;;;;;;;5127240;27;20047;-85
2023/05/14 07:55:47;;;;;;;11.07;7.93;;;;;;;;;;5112871;27;20395;-86
2023/05/14 07:58:34;;;;;;;7.45;5.63;;;;;;;;;;5112461;27;20051;-84
2023/05/14 08:01:19;;;;;;;7.07;5.93;;;;;;;;;;5113210;27;20499;-85
2023/05/14 08:04:05;;;;;;;9.05;4.95;;;;;;;;;;5135577;27;20047;-83
2023/05/14 08:06:50;;;;;;;6.38;4.57;;;;;;;;;;5135300;27;20055;-86
2023/05/14 08:09:36;;;;;;;8.30;6.35;;;;;;;;;;5125514;27;20039;-83
2023/05/14 08:12:21;;;;;;;11.65;7.03;;;;;;;;;;5112150;27;20042;-85
2023/05/14 08:15:08;;;;;;;5.28;4.22;;;;;;;;;;5135707;27;20043;-84
2023/05/14 08:17:53;;;;;;;6.75;5.20;;;;;;;;;;5126495;27;20051;-83
2023/05/14 08:20:38;;;;;;;9.98;4.63;;;;;;;;;;5120487;27;20039;-87
2023/05/14 08:23:24;;;;;;;7.40;5.93;;;;;;;;;;5126571;27;20476;-84
2023/05/14 08:26:11;;;;;;;8.25;6.10;;;;;;;;;;5126478;27;20043;-85
2023/05/14 08:28:56;;;;;;;8.02;5.60;;;;;;;;;;5135090;27;20055;-84
2023/05/14 08:31:42;;;;;;;6.82;5.80;;;;;;;;;;5112418;27;20047;-87
2023/05/14 08:34:28;;;;;;;6.07;5.38;;;;;;;;;;5111797;27;20047;-83
2023/05/14 08:37:13;;;;;;;6.15;5.20;;;;;;;;;;5112103;27;20047;-83
2023/05/14 08:39:58;;;;;;;5.25;4.05;;;;;;;;;;5112013;27;20043;-83
2023/05/14 08:42:43;;;;;;;9.07;5.35;;;;;;;;;;5112142;27;20043;-83
2023/05/14 08:45:33;;;;;;;8.57;5.60;;;;;;;;;;5112183;27;20043;-86
2023/05/14 08:48:21;;;;;;;5.63;4.15;;;;;;;;;;5111845;27;20047;-84
2023/05/14 08:51:08;;;;;;;11.25;5.90;;;;;;;;;;5112117;27;20398;-84
2023/05/14 08:53:54;;;;;;;6.72;4.85;;;;;;;;;;5134545;27;20043;-85
2023/05/14 08:56:41;;;;;;;6.50;4.90;;;;;;;;;;5126312;27;20047;-83
2023/05/14 08:59:26;;;;;;;8.13;5.05;;;;;;;;;;5109302;27;20395;-85
2023/05/14 09:02:14;;;;;;;7.30;4.50;;;;;;;;;;5119043;28;20043;-86
2023/05/14 09:05:00;;;;;;;8.82;4.90;;;;;;;;;;5112041;27;20047;-85
2023/05/14 09:07:45;;;;;;;5.90;4.55;;;;;;;;;;5111426;27;20063;-85
2023/05/14 09:10:31;;;;;;;5.47;4.90;;;;;;;;;;5112032;27;20471;-86
2023/05/14 09:13:17;;;;;;;10.63;5.45;;;;;;;;;;5115650;27;20671;-86
2023/05/14 09:16:02;;;;;;;7.53;5.43;;;;;;;;;;5119036;28;20035;-86
2023/05/14 09:18:48;;;;;;;6.72;4.18;;;;;;;;;;5111500;27;20047;-85
2023/05/14 09:21:34;;;;;;;7.38;4.72;;;;;;;;;;5126325;27;20035;-84
2023/05/14 09:24:21;;;;;;;7.93;5.43;;;;;;;;;;5091327;28;20052;-86
2023/05/14 09:27:08;;;;;;;7.30;5.30;;;;;;;;;;5091255;28;20051;-85
2023/05/14 09:29:55;;;;;;;6.85;4.68;;;;;;;;;;5105238;28;20419;-86
2023/05/14 09:32:46;;;;;;;7.93;5.68;;;;;;;;;;5105450;28;20047;-86
2023/05/14 09:35:32;;;;;;;8.85;4.85;;;;;;;;;;5103897;27;20035;-84
2023/05/14 09:38:18;;;;;;;8.23;5.90;;;;;;;;;;5117828;27;20047;-84
2023/05/14 09:41:03;;;;;;;8.40;5.32;;;;;;;;;;5108890;28;20039;-84
2023/05/14 09:43:53;;;;;;;7.82;5.93;;;;;;;;;;5132378;28;20495;-83
2023/05/14 09:46:38;;;;;;;13.18;5.72;;;;;;;;;;5125095;27;20047;-85
2023/05/14 09:49:23;;;;;;;8.45;5.82;;;;;;;;;;5109679;27;20043;-85
2023/05/14 09:52:10;;;;;;;9.38;6.78;;;;;;;;;;5111356;27;20039;-85
2023/05/14 09:54:56;;;;;;;12.27;7.88;;;;;;;;;;5110566;27;20476;-84
2023/05/14 09:57:46;;;;;;;9.75;6.88;;;;;;;;;;5120630;27;20043;-84
2023/05/14 10:00:35;;;;;;;6.65;5.18;;;;;;;;;;5071815;28;20135;-85
2023/05/14 10:03:23;;;;;;;11.65;8.48;;;;;;;;;;5081923;28;20048;-85
2023/05/14 10:06:13;;;;;;;12.32;7.40;;;;;;;;;;5084532;28;20051;-85
2023/05/14 10:09:02;;;;;;;10.07;5.88;;;;;;;;;;5077398;28;20059;-83
2023/05/14 10:11:56;;;;;;;5.88;4.55;;;;;;;;;;5098857;28;20060;-84
2023/05/14 10:14:48;;;;;;;7.80;5.97;;;;;;;;;;5083215;28;20591;-85
2023/05/14 10:17:37;;;;;;;7.68;6.00;;;;;;;;;;5071167;28;20421;-83
2023/05/14 10:20:25;;;;;;;5.90;4.40;;;;;;;;;;5079847;28;20392;-85
2023/05/14 10:23:10;;;;;;;6.30;4.45;;;;;;;;;;5097793;28;20044;-83
2023/05/14 10:26:00;;;;;;;6.15;3.80;;;;;;;;;;5086806;28;20048;-84
2023/05/14 10:28:45;;;;;;;2.97;2.67;;;;;;;;;;5099407;28;20044;-85
2023/05/14 10:31:49;;;;;;;3.25;2.47;;;;;;;;;;5082523;28;20492;-83
2023/05/14 10:34:40;;;;;;;3.72;3.22;;;;;;;;;;5085018;28;20049;-84
2023/05/14 10:37:25;;;;;;;4.60;2.85;;;;;;;;;;5080173;28;20044;-82
2023/05/14 10:40:11;;;;;;;4.75;3.08;;;;;;;;;;5075194;28;20393;-85
2023/05/14 10:42:58;;;;;;;6.38;4.30;;;;;;;;;;5085378;28;20032;-85
2023/05/14 10:45:44;;;;;;;8.27;3.85;;;;;;;;;;5070203;28;20040;-86
2023/05/14 10:48:34;;;;;;;6.68;4.00;;;;;;;;;;5086865;28;20048;-85
2023/05/14 10:51:44;;;;;;;7.38;5.10;;;;;;;;;;5086074;28;20040;-86
2023/05/14 10:54:29;;;;;;;15.57;8.18;;;;;;;;;;5086437;28;20044;-85
2023/05/14 10:57:20;;;;;;;11.38;7.18;;;;;;;;;;5087765;28;20400;-84
2023/05/14 11:00:37;;;;;;;11.23;6.40;;;;;;;;;;5080652;28;20048;-89
2023/05/14 11:03:22;;;;;;;7.72;5.50;;;;;;;;;;5095289;28;20048;-84
2023/05/14 11:06:09;;;;;;;8.77;5.97;;;;;;;;;;5093717;28;20036;-85
2023/05/14 11:08:55;;;;;;;10.52;5.50;;;;;;;;;;5096730;28;20056;-83
2023/05/14 11:11:40;;;;;;;6.30;3.00;;;;;;;;;;5095464;28;20051;-82
2023/05/14 11:14:26;;;;;;;9.70;5.72;;;;;;;;;;5088359;28;20044;-82
2023/05/14 11:17:12;;;;;;;8.25;4.93;;;;;;;;;;5085340;28;20052;-82
2023/05/14 11:19:59;;;;;;;5.63;4.15;;;;;;;;;;5086447;28;20048;-82
2023/05/14 11:22:46;;;;;;;5.63;3.72;;;;;;;;;;5085951;28;20048;-81
2023/05/14 11:25:31;;;;;;;4.13;2.90;;;;;;;;;;5077644;28;20043;-82
2023/05/14 11:28:16;;;;;;;6.85;4.15;;;;;;;;;;5088322;28;20044;-83
2023/05/14 11:31:02;;;;;;;6.32;3.85;;;;;;;;;;5085068;28;20044;-82
2023/05/14 11:33:47;;;;;;;7.18;4.30;;;;;;;;;;5082590;28;20037;-83
2023/05/14 11:36:36;;;;;;;4.78;3.30;;;;;;;;;;5098316;28;20055;-84
2023/05/14 11:39:21;;;;;;;4.65;2.90;;;;;;;;;;5081599;28;20039;-84
2023/05/14 11:42:13;;;;;;;9.75;4.43;;;;;;;;;;5097152;28;20044;-83
2023/05/14 11:44:59;;;;;;;6.63;3.72;;;;;;;;;;5100100;28;20047;-83
2023/05/14 11:47:44;;;;;;;3.85;2.70;;;;;;;;;;5085870;28;20052;-85
2023/05/14 11:50:30;;;;;;;5.53;2.75;;;;;;;;;;5069560;28;20419;-84
2023/05/14 11:53:24;;;;;;;7.72;3.53;;;;;;;;;;5080656;28;20040;-85
2023/05/14 11:56:09;;;;;;;4.13;2.83;;;;;;;;;;5099013;28;20135;-82
2023/05/14 11:58:57;;;;;;;3.78;3.13;;;;;;;;;;5074870;28;20036;-83
2023/05/14 12:01:44;;;;;;;7.63;3.92;;;;;;;;;;5107873;27;20047;-83
2023/05/14 12:04:30;;;;;;;3.22;2.38;;;;;;;;;;5112320;27;20483;-83
2023/05/14 12:07:15;;;;;;;4.07;3.22;;;;;;;;;;5126807;27;20051;-83
2023/05/14 12:10:02;;;;;;;2.97;2.35;;;;;;;;;;5111789;27;20047;-82
2023/05/14 12:12:48;;;;;;;7.10;4.00;;;;;;;;;;5135737;27;20051;-83
2023/05/14 12:15:33;;;;;;;3.78;2.85;;;;;;;;;;5126981;27;20471;-83
2023/05/14 12:18:18;;;;;;;4.68;3.65;;;;;;;;;;5134774;27;20039;-82
2023/05/14 12:21:07;;;;;;;5.60;3.85;;;;;;;;;;5127057;27;20039;-84
2023/05/14 12:24:01;;;;;;;6.07;4.20;;;;;;;;;;5104949;27;20051;-82
2023/05/14 12:26:48;;;;;;;6.53;4.40;;;;;;;;;;5112128;27;20043;-83
2023/05/14 12:29:37;;;;;;;12.40;7.13;;;;;;;;;;5092052;28;20051;-81
2023/05/14 12:32:24;;;;;;;7.47;4.43;;;;;;;;;;5119636;28;20483;-86
2023/05/14 12:35:10;;;;;;;7.85;3.65;;;;;;;;;;5091844;28;20047;-81
2023/05/14 12:37:55;;;;;;;2.55;2.13;;;;;;;;;;5105470;28;20399;-81
2023/05/14 12:40:40;;;;;;;6.47;4.10;;;;;;;;;;5105909;28;20154;-82
2023/05/14 12:43:30;;;;;;;6.03;4.07;;;;;;;;;;5113420;27;20475;-84
2023/05/14 12:46:16;;;;;;;5.72;3.67;;;;;;;;;;5109330;27;20047;-83
2023/05/14 12:49:01;;;;;;;4.45;3.20;;;;;;;;;;5133697;27;20403;-83
2023/05/14 12:51:46;;;;;;;5.03;3.22;;;;;;;;;;5121613;27;20051;-85
2023/05/14 12:54:32;;;;;;;8.82;4.80;;;;;;;;;;5091452;27;20060;-83
2023/05/14 12:57:18;;;;;;;4.47;3.22;;;;;;;;;;5118979;27;20039;-84
2023/05/14 13:00:07;;;;;;;5.57;3.72;;;;;;;;;;5113338;27;20490;-83
2023/05/14 13:02:53;;;;;;;5.40;3.85;;;;;;;;;;5088054;27;20129;-85
2023/05/14 13:05:38;;;;;;;5.30;3.60;;;;;;;;;;5125454;27;20050;-85
2023/05/14 13:08:25;;;;;;;9.30;4.88;;;;;;;;;;5119438;28;20051;-85
2023/05/14 13:11:10;;;;;;;7.43;5.07;;;;;;;;;;5134334;28;20039;-84
2023/05/14 13:13:55;;;;;;;11.45;7.05;;;;;;;;;;5111365;27;20463;-84
2023/05/14 13:16:42;;;;;;;7.70;4.35;;;;;;;;;;5115759;28;20476;-85
2023/05/14 13:19:27;;;;;;;9.13;5.53;;;;;;;;;;5109090;27;20047;-85
2023/05/14 13:22:15;;;;;;;8.30;5.28;;;;;;;;;;5111493;27;20395;-87
2023/05/14 13:25:20;;;;;;;15.32;7.70;;;;;;;;;;5129420;22;20056;-83
2023/05/14 13:28:29;;;;;;;9.35;5.78;;;;;;;;;;5054260;28;20044;-82
2023/05/14 13:31:14;;;;;;;10.77;7.70;;;;;;;;;;5048346;28;20412;-81
2023/05/14 13:34:01;;;;;;;5.72;4.15;;;;;;;;;;5062325;28;20044;-80
2023/05/14 13:36:48;;;;;;;5.18;3.78;;;;;;;;;;5055926;28;20048;-82
2023/05/14 13:39:33;;;;;;;8.05;4.25;;;;;;;;;;5057237;28;20040;-80
2023/05/14 13:42:18;;;;;;;6.60;4.55;;;;;;;;;;5056400;28;21627;-83
2023/05/14 13:45:04;;;;;;;5.95;4.28;;;;;;;;;;5062031;28;20052;-82
2023/05/14 13:47:49;;;;;;;6.97;3.53;;;;;;;;;;5060494;28;20500;-82
2023/05/14 13:50:35;;;;;;;6.25;3.15;;;;;;;;;;5062307;28;20487;-81
2023/05/14 13:53:21;;;;;;;9.27;3.47;;;;;;;;;;5053476;28;20044;-82
2023/05/14 13:56:07;;;;;;;6.10;3.65;;;;;;;;;;5056869;28;20048;-81
2023/05/14 13:58:53;;;;;;;9.82;3.50;;;;;;;;;;5061374;28;20040;-82
2023/05/14 14:01:42;;;;;;;4.80;3.42;;;;;;;;;;5058668;28;20036;-83
2023/05/14 14:04:29;;;;;;;7.88;4.15;;;;;;;;;;5066444;28;20037;-84
2023/05/14 14:07:17;;;;;;;8.00;3.22;;;;;;;;;;5066106;28;20040;-84
2023/05/14 14:10:04;;;;;;;6.85;3.67;;;;;;;;;;5066443;28;20404;-83
2023/05/14 14:12:50;;;;;;;6.38;3.67;;;;;;;;;;5074537;28;20041;-82
2023/05/14 14:15:36;;;;;;;8.98;4.60;;;;;;;;;;5052267;28;20036;-83
2023/05/14 14:18:22;;;;;;;8.65;4.68;;;;;;;;;;5067193;28;20045;-82
2023/05/14 14:21:10;;;;;;;4.00;3.40;;;;;;;;;;5066612;28;20036;-84
2023/05/14 14:23:56;;;;;;;9.60;4.32;;;;;;;;;;5058661;28;20045;-83
2023/05/14 14:26:41;;;;;;;7.20;3.60;;;;;;;;;;5050788;28;20045;-80
2023/05/14 14:29:29;;;;;;;5.95;3.78;;;;;;;;;;5061922;28;20041;-84
2023/05/14 14:32:14;;;;;;;6.22;4.00;;;;;;;;;;5061207;28;20045;-82
2023/05/14 14:35:00;;;;;;;8.27;4.80;;;;;;;;;;5060170;28;20041;-83
2023/05/14 14:37:49;;;;;;;6.53;4.38;;;;;;;;;;5059466;28;20481;-84
2023/05/14 14:40:34;;;;;;;9.70;2.67;;;;;;;;;;5060963;28;20119;-82
2023/05/14 14:43:19;;;;;;;5.80;2.97;;;;;;;;;;5065846;28;20056;-84
2023/05/14 14:46:07;;;;;;;11.98;4.60;;;;;;;;;;5059723;28;20048;-81
2023/05/14 14:48:53;;;;;;;5.55;3.75;;;;;;;;;;5078353;28;20041;-82
2023/05/14 14:51:39;;;;;;;5.70;3.45;;;;;;;;;;5058984;28;20048;-82
2023/05/14 14:54:24;;;;;;;7.00;4.63;;;;;;;;;;5052408;28;20048;-81
2023/05/14 14:57:11;;;;;;;10.88;4.20;;;;;;;;;;5059432;28;20041;-82
2023/05/14 14:59:56;;;;;;;8.23;4.40;;;;;;;;;;5065744;28;20057;-82
2023/05/14 15:02:42;;;;;;;6.28;4.05;;;;;;;;;;5060260;28;20040;-82
2023/05/14 15:05:27;;;;;;;5.80;4.22;;;;;;;;;;5060975;28;20041;-81
2023/05/14 15:08:13;;;;;;;8.48;4.75;;;;;;;;;;5067734;28;20036;-81
2023/05/14 15:10:58;;;;;;;9.18;4.80;;;;;;;;;;5059785;28;20040;-82
2023/05/14 15:13:43;;;;;;;9.75;4.20;;;;;;;;;;5061152;28;20040;-82
2023/05/14 15:16:29;;;;;;;5.15;4.30;;;;;;;;;;5061815;28;20040;-82
2023/05/14 15:19:14;;;;;;;7.65;5.13;;;;;;;;;;5061497;28;20056;-81
2023/05/14 15:22:00;;;;;;;4.28;3.08;;;;;;;;;;5067648;28;20048;-82
2023/05/14 15:24:46;;;;;;;15.68;7.45;;;;;;;;;;5067641;28;20040;-82
2023/05/14 15:27:31;;;;;;;17.17;8.70;;;;;;;;;;5062129;28;20045;-82
2023/05/14 15:30:18;;;;;;;17.95;9.38;;;;;;;;;;5060734;28;20479;-82
2023/05/14 15:33:06;;;;;;;14.38;7.47;;;;;;;;;;5060611;28;20468;-82
2023/05/14 15:35:51;;;;;;;21.38;9.60;;;;;;;;;;5061682;28;20040;-81
2023/05/14 15:38:37;;;;;;;7.82;5.18;;;;;;;;;;5060746;28;20045;-81
2023/05/14 15:41:24;;;;;;;25.08;11.63;;;;;;;;;;5060525;28;20045;-81
2023/05/14 15:44:11;;;;;;;10.18;6.20;;;;;;;;;;5060728;28;20067;-83
2023/05/14 15:46:56;;;;;;;15.77;7.10;;;;;;;;;;5060888;28;20504;-82
2023/05/14 15:49:42;;;;;;;10.93;6.70;;;;;;;;;;5052789;28;20040;-82
2023/05/14 15:52:27;;;;;;;15.77;6.93;;;;;;;;;;5066910;28;20037;-81
2023/05/14 15:55:13;;;;;;;9.90;3.92;;;;;;;;;;5066535;28;20152;-80
2023/05/14 15:57:58;;;;;;;7.47;4.93;;;;;;;;;;5064525;28;20041;-82
2023/05/14 16:00:44;;;;;;;9.95;4.70;;;;;;;;;;5061070;28;20041;-83
2023/05/14 16:03:29;;;;;;;6.00;3.47;;;;;;;;;;5080999;28;20048;-81
2023/05/14 16:06:15;;;;;;;6.55;4.88;;;;;;;;;;5059950;28;20044;-81
2023/05/14 16:09:01;;;;;;;5.75;3.72;;;;;;;;;;5059024;28;20037;-81
2023/05/14 16:11:48;;;;;;;9.85;4.97;;;;;;;;;;5066604;28;20037;-82
2023/05/14 16:14:34;;;;;;;7.28;4.85;;;;;;;;;;5059222;28;20049;-82
2023/05/14 16:17:20;;;;;;;8.88;4.95;;;;;;;;;;5056295;28;20235;-81
2023/05/14 16:20:06;;;;;;;10.43;5.05;;;;;;;;;;5059231;28;20044;-82
2023/05/14 16:22:52;;;;;;;10.43;5.57;;;;;;;;;;5059223;28;20049;-82
2023/05/14 16:25:37;;;;;;;7.82;5.63;;;;;;;;;;5051563;28;20040;-82
2023/05/14 16:28:23;;;;;;;11.80;6.25;;;;;;;;;;5064420;28;20048;-84
2023/05/14 16:31:09;;;;;;;13.05;6.00;;;;;;;;;;5058175;28;20044;-83
2023/05/14 16:33:54;;;;;;;11.52;6.30;;;;;;;;;;5057869;28;20041;-83
2023/05/14 16:36:40;;;;;;;7.05;4.70;;;;;;;;;;5058200;28;20480;-83